sensor_id;sensor_type;location;lat;lon;timestamp;pressure;altitude;pressure_sealevel;temperature;humidity
57248;BME280;55809;46.618;10.764;2024-01-16T00:01:06;91816.63;;;1.50;100.00
57248;BME280;55809;46.618;10.764;2024-01-16T00:03:34;91827.66;;;1.49;100.00
57248;BME280;55809;46.618;10.764;2024-01-16T00:06:01;91816.25;;;1.48;100.00
57248;BME280;55809;46.618;10.764;2024-01-16T00:08:28;91829.47;;;1.45;100.00
57248;BME280;55809;46.618;10.764;2024-01-16T00:10:55;91828.34;;;1.42;100.00
57248;BME280;55809;46.618;10.764;2024-01-16T00:13:23;91754.28;;;0.92;100.00
57248;BME280;55809;46.618;10.764;2024-01-16T00:15:50;91831.09;;;1.53;100.00
57248;BME280;55809;46.618;10.764;2024-01-16T00:18:17;91832.19;;;1.48;100.00
57248;BME280;55809;46.618;10.764;2024-01-16T00:20:44;91837.91;;;1.54;100.00
57248;BME280;55809;46.618;10.764;2024-01-16T00:23:11;91835.69;;;1.59;100.00
57248;BME280;55809;46.618;10.764;2024-01-16T00:25:38;91831.91;;;1.60;100.00
57248;BME280;55809;46.618;10.764;2024-01-16T00:28:06;91844.00;;;1.54;100.00
57248;BME280;55809;46.618;10.764;2024-01-16T00:30:34;91841.69;;;1.49;100.00
57248;BME280;55809;46.618;10.764;2024-01-16T00:33:02;91849.63;;;1.42;100.00
57248;BME280;55809;46.618;10.764;2024-01-16T00:35:29;91843.25;;;1.54;100.00
57248;BME280;55809;46.618;10.764;2024-01-16T00:37:56;91839.50;;;1.62;100.00
57248;BME280;55809;46.618;10.764;2024-01-16T00:40:23;91848.59;;;1.61;100.00
57248;BME280;55809;46.618;10.764;2024-01-16T00:42:49;91868.03;;;1.65;100.00
57248;BME280;55809;46.618;10.764;2024-01-16T00:45:17;91742.06;;;0.84;100.00
57248;BME280;55809;46.618;10.764;2024-01-16T00:47:45;91871.03;;;1.60;100.00
57248;BME280;55809;46.618;10.764;2024-01-16T00:50:12;91860.69;;;1.51;100.00
57248;BME280;55809;46.618;10.764;2024-01-16T00:52:39;91883.03;;;1.43;100.00
57248;BME280;55809;46.618;10.764;2024-01-16T00:55:06;91876.44;;;1.26;100.00
57248;BME280;55809;46.618;10.764;2024-01-16T00:57:33;91879.00;;;1.15;100.00
57248;BME280;55809;46.618;10.764;2024-01-16T01:00:00;91896.38;;;1.06;100.00
57248;BME280;55809;46.618;10.764;2024-01-16T01:02:27;91896.22;;;0.95;100.00
57248;BME280;55809;46.618;10.764;2024-01-16T01:04:55;91896.56;;;0.90;100.00
57248;BME280;55809;46.618;10.764;2024-01-16T01:07:22;91898.81;;;0.88;100.00
57248;BME280;55809;46.618;10.764;2024-01-16T01:09:50;91900.66;;;0.84;100.00
57248;BME280;55809;46.618;10.764;2024-01-16T01:12:17;91894.94;;;0.82;100.00
57248;BME280;55809;46.618;10.764;2024-01-16T01:14:44;91903.81;;;0.93;100.00
57248;BME280;55809;46.618;10.764;2024-01-16T01:17:10;91909.41;;;0.84;100.00
57248;BME280;55809;46.618;10.764;2024-01-16T01:19:37;91912.47;;;0.86;100.00
57248;BME280;55809;46.618;10.764;2024-01-16T01:22:05;91912.94;;;0.96;100.00
57248;BME280;55809;46.618;10.764;2024-01-16T01:24:32;91759.50;;;-0.23;100.00
57248;BME280;55809;46.618;10.764;2024-01-16T01:26:59;91912.06;;;0.84;100.00
57248;BME280;55809;46.618;10.764;2024-01-16T01:29:26;91833.56;;;0.23;100.00
57248;BME280;55809;46.618;10.764;2024-01-16T01:31:53;91923.22;;;0.97;100.00
57248;BME280;55809;46.618;10.764;2024-01-16T01:34:19;91920.25;;;1.02;100.00
57248;BME280;55809;46.618;10.764;2024-01-16T01:36:46;91936.59;;;1.08;100.00
57248;BME280;55809;46.618;10.764;2024-01-16T01:39:14;91934.41;;;1.13;100.00
57248;BME280;55809;46.618;10.764;2024-01-16T01:41:41;91934.31;;;1.06;100.00
57248;BME280;55809;46.618;10.764;2024-01-16T01:44:08;91941.88;;;1.04;100.00
57248;BME280;55809;46.618;10.764;2024-01-16T01:46:41;91948.31;;;1.03;100.00
57248;BME280;55809;46.618;10.764;2024-01-16T01:49:08;91944.16;;;1.02;100.00
57248;BME280;55809;46.618;10.764;2024-01-16T01:51:35;91945.59;;;0.96;100.00
57248;BME280;55809;46.618;10.764;2024-01-16T01:54:02;91944.78;;;0.92;100.00
57248;BME280;55809;46.618;10.764;2024-01-16T01:56:31;91936.41;;;0.90;100.00
57248;BME280;55809;46.618;10.764;2024-01-16T01:58:58;91889.63;;;0.48;100.00
57248;BME280;55809;46.618;10.764;2024-01-16T02:01:28;91946.50;;;0.77;100.00
57248;BME280;55809;46.618;10.764;2024-01-16T02:03:56;91939.28;;;0.78;100.00
57248;BME280;55809;46.618;10.764;2024-01-16T02:06:23;91939.50;;;0.65;100.00
57248;BME280;55809;46.618;10.764;2024-01-16T02:08:51;91936.06;;;0.61;100.00
57248;BME280;55809;46.618;10.764;2024-01-16T02:11:18;91942.13;;;0.62;100.00
57248;BME280;55809;46.618;10.764;2024-01-16T02:13:46;91943.50;;;0.52;100.00
57248;BME280;55809;46.618;10.764;2024-01-16T02:16:20;91884.59;;;0.13;100.00
57248;BME280;55809;46.618;10.764;2024-01-16T02:18:47;91938.16;;;0.49;100.00
57248;BME280;55809;46.618;10.764;2024-01-16T02:21:17;91940.78;;;0.45;100.00
57248;BME280;55809;46.618;10.764;2024-01-16T02:23:46;91945.38;;;0.48;100.00
57248;BME280;55809;46.618;10.764;2024-01-16T02:26:14;91945.31;;;0.44;100.00
57248;BME280;55809;46.618;10.764;2024-01-16T02:28:41;91942.72;;;0.48;100.00
57248;BME280;55809;46.618;10.764;2024-01-16T02:31:08;91949.88;;;0.44;100.00
57248;BME280;55809;46.618;10.764;2024-01-16T02:33:35;91879.00;;;-0.09;100.00
57248;BME280;55809;46.618;10.764;2024-01-16T02:36:03;91953.91;;;0.34;100.00
57248;BME280;55809;46.618;10.764;2024-01-16T02:38:30;91954.25;;;0.33;100.00
57248;BME280;55809;46.618;10.764;2024-01-16T02:40:59;91954.19;;;0.29;100.00
57248;BME280;55809;46.618;10.764;2024-01-16T02:43:26;91954.63;;;0.31;100.00
57248;BME280;55809;46.618;10.764;2024-01-16T02:45:53;91834.72;;;-0.58;100.00
57248;BME280;55809;46.618;10.764;2024-01-16T02:48:20;91957.03;;;0.13;100.00
57248;BME280;55809;46.618;10.764;2024-01-16T02:50:47;91963.38;;;0.09;100.00
57248;BME280;55809;46.618;10.764;2024-01-16T02:53:14;91967.56;;;0.10;100.00
57248;BME280;55809;46.618;10.764;2024-01-16T02:55:41;91969.44;;;0.09;100.00
57248;BME280;55809;46.618;10.764;2024-01-16T02:58:09;91970.59;;;0.08;100.00
57248;BME280;55809;46.618;10.764;2024-01-16T03:00:36;91967.13;;;0.04;100.00
57248;BME280;55809;46.618;10.764;2024-01-16T03:03:04;91977.72;;;0.04;100.00
57248;BME280;55809;46.618;10.764;2024-01-16T03:05:31;91972.75;;;0.03;100.00
57248;BME280;55809;46.618;10.764;2024-01-16T03:07:58;91962.81;;;-0.04;100.00
57248;BME280;55809;46.618;10.764;2024-01-16T03:10:25;91964.66;;;-0.08;100.00
57248;BME280;55809;46.618;10.764;2024-01-16T03:12:52;91970.75;;;-0.04;100.00
57248;BME280;55809;46.618;10.764;2024-01-16T03:15:20;91970.38;;;-0.06;100.00
57248;BME280;55809;46.618;10.764;2024-01-16T03:17:47;91881.41;;;-0.73;100.00
57248;BME280;55809;46.618;10.764;2024-01-16T03:20:15;91982.50;;;-0.05;100.00
57248;BME280;55809;46.618;10.764;2024-01-16T03:22:41;91976.00;;;-0.08;100.00
57248;BME280;55809;46.618;10.764;2024-01-16T03:25:10;91974.88;;;-0.07;100.00
57248;BME280;55809;46.618;10.764;2024-01-16T03:27:37;91898.44;;;-0.74;100.00
57248;BME280;55809;46.618;10.764;2024-01-16T03:30:05;91975.25;;;-0.08;100.00
57248;BME280;55809;46.618;10.764;2024-01-16T03:32:35;91974.50;;;-0.09;100.00
57248;BME280;55809;46.618;10.764;2024-01-16T03:35:02;91990.41;;;-0.09;100.00
57248;BME280;55809;46.618;10.764;2024-01-16T03:37:30;91991.94;;;-0.08;100.00
57248;BME280;55809;46.618;10.764;2024-01-16T03:39:57;91989.22;;;-0.11;100.00
57248;BME280;55809;46.618;10.764;2024-01-16T03:42:24;91991.81;;;-0.15;100.00
57248;BME280;55809;46.618;10.764;2024-01-16T03:44:51;91996.69;;;-0.17;100.00
57248;BME280;55809;46.618;10.764;2024-01-16T03:47:18;91997.34;;;-0.24;100.00
57248;BME280;55809;46.618;10.764;2024-01-16T03:49:46;92002.13;;;-0.33;100.00
57248;BME280;55809;46.618;10.764;2024-01-16T03:52:13;91979.75;;;-0.35;100.00
57248;BME280;55809;46.618;10.764;2024-01-16T03:54:40;91997.72;;;-0.25;100.00
57248;BME280;55809;46.618;10.764;2024-01-16T03:57:07;91997.66;;;-0.29;100.00
57248;BME280;55809;46.618;10.764;2024-01-16T03:59:36;91898.78;;;-0.98;100.00
57248;BME280;55809;46.618;10.764;2024-01-16T04:02:03;91998.69;;;-0.33;100.00
57248;BME280;55809;46.618;10.764;2024-01-16T04:04:30;91996.91;;;-0.29;100.00
57248;BME280;55809;46.618;10.764;2024-01-16T04:06:59;92001.34;;;-0.33;100.00
57248;BME280;55809;46.618;10.764;2024-01-16T04:09:25;92000.91;;;-0.39;100.00
57248;BME280;55809;46.618;10.764;2024-01-16T04:11:52;92008.47;;;-0.37;100.00
57248;BME280;55809;46.618;10.764;2024-01-16T04:14:20;91992.19;;;-0.39;100.00
57248;BME280;55809;46.618;10.764;2024-01-16T04:16:46;91997.88;;;-0.37;100.00
57248;BME280;55809;46.618;10.764;2024-01-16T04:19:13;91965.16;;;-0.68;100.00
57248;BME280;55809;46.618;10.764;2024-01-16T04:21:40;91921.88;;;-0.99;100.00
57248;BME280;55809;46.618;10.764;2024-01-16T04:24:09;92003.69;;;-0.51;100.00
57248;BME280;55809;46.618;10.764;2024-01-16T04:26:36;91948.53;;;-0.88;100.00
57248;BME280;55809;46.618;10.764;2024-01-16T04:29:03;92005.97;;;-0.50;100.00
57248;BME280;55809;46.618;10.764;2024-01-16T04:31:30;92010.41;;;-0.57;100.00
57248;BME280;55809;46.618;10.764;2024-01-16T04:33:58;92014.66;;;-0.53;100.00
57248;BME280;55809;46.618;10.764;2024-01-16T04:36:25;92005.59;;;-0.52;100.00
57248;BME280;55809;46.618;10.764;2024-01-16T04:38:52;91951.88;;;-0.91;100.00
57248;BME280;55809;46.618;10.764;2024-01-16T04:41:20;92010.81;;;-0.55;100.00
57248;BME280;55809;46.618;10.764;2024-01-16T04:43:47;92005.47;;;-0.59;100.00
57248;BME280;55809;46.618;10.764;2024-01-16T04:46:15;92017.59;;;-0.58;100.00
57248;BME280;55809;46.618;10.764;2024-01-16T04:48:42;92022.41;;;-0.63;100.00
57248;BME280;55809;46.618;10.764;2024-01-16T04:51:09;92023.59;;;-0.61;100.00
57248;BME280;55809;46.618;10.764;2024-01-16T04:53:36;92022.19;;;-0.55;100.00
57248;BME280;55809;46.618;10.764;2024-01-16T04:56:04;92029.78;;;-0.53;100.00
57248;BME280;55809;46.618;10.764;2024-01-16T04:58:32;92021.13;;;-0.50;100.00
57248;BME280;55809;46.618;10.764;2024-01-16T05:00:59;91960.53;;;-0.94;100.00
57248;BME280;55809;46.618;10.764;2024-01-16T05:03:26;91877.78;;;-1.49;100.00
57248;BME280;55809;46.618;10.764;2024-01-16T05:05:53;91962.81;;;-0.92;100.00
57248;BME280;55809;46.618;10.764;2024-01-16T05:08:21;92026.31;;;-0.57;100.00
57248;BME280;55809;46.618;10.764;2024-01-16T05:10:48;92005.91;;;-0.53;100.00
57248;BME280;55809;46.618;10.764;2024-01-16T05:13:15;91840.97;;;-1.58;100.00
57248;BME280;55809;46.618;10.764;2024-01-16T05:15:43;91914.31;;;-0.97;100.00
57248;BME280;55809;46.618;10.764;2024-01-16T05:18:10;91998.03;;;-0.50;100.00
57248;BME280;55809;46.618;10.764;2024-01-16T05:20:37;92007.47;;;-0.52;100.00
57248;BME280;55809;46.618;10.764;2024-01-16T05:23:05;92018.72;;;-0.59;100.00
57248;BME280;55809;46.618;10.764;2024-01-16T05:25:32;92010.69;;;-0.62;100.00
57248;BME280;55809;46.618;10.764;2024-01-16T05:27:58;92005.47;;;-0.59;100.00
57248;BME280;55809;46.618;10.764;2024-01-16T05:30:26;92003.91;;;-0.60;100.00
57248;BME280;55809;46.618;10.764;2024-01-16T05:32:54;92016.97;;;-0.71;100.00
57248;BME280;55809;46.618;10.764;2024-01-16T05:35:21;91995.50;;;-0.65;100.00
57248;BME280;55809;46.618;10.764;2024-01-16T05:37:48;91996.78;;;-0.79;100.00
57248;BME280;55809;46.618;10.764;2024-01-16T05:40:15;91973.84;;;-0.90;100.00
57248;BME280;55809;46.618;10.764;2024-01-16T05:42:42;92002.91;;;-0.75;100.00
57248;BME280;55809;46.618;10.764;2024-01-16T05:45:09;91997.53;;;-0.78;100.00
57248;BME280;55809;46.618;10.764;2024-01-16T05:47:36;92004.78;;;-0.75;100.00
57248;BME280;55809;46.618;10.764;2024-01-16T05:50:05;92003.16;;;-0.80;100.00
57248;BME280;55809;46.618;10.764;2024-01-16T05:52:32;91997.16;;;-0.77;100.00
57248;BME280;55809;46.618;10.764;2024-01-16T05:54:59;91910.66;;;-1.31;100.00
57248;BME280;55809;46.618;10.764;2024-01-16T05:57:28;91999.94;;;-0.69;100.00
57248;BME280;55809;46.618;10.764;2024-01-16T05:59:57;91956.81;;;-1.09;100.00
57248;BME280;55809;46.618;10.764;2024-01-16T06:02:24;92005.94;;;-0.73;100.00
57248;BME280;55809;46.618;10.764;2024-01-16T06:04:51;92003.38;;;-0.69;100.00
57248;BME280;55809;46.618;10.764;2024-01-16T06:07:19;91915.03;;;-1.19;100.00
57248;BME280;55809;46.618;10.764;2024-01-16T06:09:46;92011.41;;;-0.65;100.00
57248;BME280;55809;46.618;10.764;2024-01-16T06:12:13;92017.47;;;-0.65;100.00
57248;BME280;55809;46.618;10.764;2024-01-16T06:14:40;92015.22;;;-0.63;100.00
57248;BME280;55809;46.618;10.764;2024-01-16T06:17:06;92018.50;;;-0.69;100.00
57248;BME280;55809;46.618;10.764;2024-01-16T06:19:34;92008.00;;;-0.85;100.00
57248;BME280;55809;46.618;10.764;2024-01-16T06:22:00;92016.41;;;-0.80;100.00
57248;BME280;55809;46.618;10.764;2024-01-16T06:24:29;92000.75;;;-0.88;100.00
57248;BME280;55809;46.618;10.764;2024-01-16T06:27:02;91953.34;;;-1.32;100.00
57248;BME280;55809;46.618;10.764;2024-01-16T06:29:29;92034.31;;;-0.73;100.00
57248;BME280;55809;46.618;10.764;2024-01-16T06:31:56;92031.16;;;-0.82;100.00
57248;BME280;55809;46.618;10.764;2024-01-16T06:34:23;92039.50;;;-0.80;100.00
57248;BME280;55809;46.618;10.764;2024-01-16T06:36:50;92040.75;;;-0.74;100.00
57248;BME280;55809;46.618;10.764;2024-01-16T06:39:17;92051.78;;;-0.72;100.00
57248;BME280;55809;46.618;10.764;2024-01-16T06:41:45;92057.63;;;-0.82;100.00
57248;BME280;55809;46.618;10.764;2024-01-16T06:44:12;92065.91;;;-0.84;100.00
57248;BME280;55809;46.618;10.764;2024-01-16T06:46:39;92029.59;;;-1.03;100.00
57248;BME280;55809;46.618;10.764;2024-01-16T06:49:06;92062.06;;;-0.86;100.00
57248;BME280;55809;46.618;10.764;2024-01-16T06:51:33;92077.69;;;-0.81;100.00
57248;BME280;55809;46.618;10.764;2024-01-16T06:53:59;92077.28;;;-0.83;100.00
57248;BME280;55809;46.618;10.764;2024-01-16T06:56:26;92006.78;;;-1.27;100.00
57248;BME280;55809;46.618;10.764;2024-01-16T06:58:55;91945.97;;;-1.78;100.00
57248;BME280;55809;46.618;10.764;2024-01-16T07:01:22;92099.66;;;-0.81;100.00
57248;BME280;55809;46.618;10.764;2024-01-16T07:03:49;92096.19;;;-0.65;100.00
57248;BME280;55809;46.618;10.764;2024-01-16T07:06:18;92096.75;;;-0.76;100.00
57248;BME280;55809;46.618;10.764;2024-01-16T07:08:45;92037.44;;;-1.26;100.00
57248;BME280;55809;46.618;10.764;2024-01-16T07:11:12;92099.59;;;-0.84;100.00
57248;BME280;55809;46.618;10.764;2024-01-16T07:13:39;92035.25;;;-1.39;100.00
57248;BME280;55809;46.618;10.764;2024-01-16T07:16:09;92114.75;;;-0.65;100.00
57248;BME280;55809;46.618;10.764;2024-01-16T07:18:37;92117.94;;;-0.76;100.00
57248;BME280;55809;46.618;10.764;2024-01-16T07:21:04;92142.97;;;-0.73;100.00
57248;BME280;55809;46.618;10.764;2024-01-16T07:23:31;92135.28;;;-0.78;100.00
57248;BME280;55809;46.618;10.764;2024-01-16T07:25:58;92141.69;;;-0.79;100.00
57248;BME280;55809;46.618;10.764;2024-01-16T07:28:25;92145.19;;;-0.75;100.00
57248;BME280;55809;46.618;10.764;2024-01-16T07:30:53;92159.41;;;-0.83;100.00
57248;BME280;55809;46.618;10.764;2024-01-16T07:33:22;92163.69;;;-0.79;100.00
57248;BME280;55809;46.618;10.764;2024-01-16T07:35:49;92184.44;;;-0.81;100.00
57248;BME280;55809;46.618;10.764;2024-01-16T07:38:16;92156.69;;;-1.03;100.00
57248;BME280;55809;46.618;10.764;2024-01-16T07:40:43;92191.19;;;-0.83;100.00
57248;BME280;55809;46.618;10.764;2024-01-16T07:43:10;92192.75;;;-0.82;100.00
57248;BME280;55809;46.618;10.764;2024-01-16T07:45:37;92201.28;;;-0.89;100.00
57248;BME280;55809;46.618;10.764;2024-01-16T07:48:04;92203.75;;;-0.96;100.00
57248;BME280;55809;46.618;10.764;2024-01-16T07:50:33;92188.16;;;-1.17;100.00
57248;BME280;55809;46.618;10.764;2024-01-16T07:52:59;92197.31;;;-1.14;100.00
57248;BME280;55809;46.618;10.764;2024-01-16T07:55:26;92224.72;;;-1.07;100.00
57248;BME280;55809;46.618;10.764;2024-01-16T07:57:54;92152.81;;;-1.56;100.00
57248;BME280;55809;46.618;10.764;2024-01-16T08:00:21;92226.91;;;-1.09;100.00
57248;BME280;55809;46.618;10.764;2024-01-16T08:02:48;92167.25;;;-1.54;100.00
57248;BME280;55809;46.618;10.764;2024-01-16T08:05:15;92178.34;;;-1.48;100.00
57248;BME280;55809;46.618;10.764;2024-01-16T08:07:44;92238.13;;;-1.15;100.00
57248;BME280;55809;46.618;10.764;2024-01-16T08:10:11;92236.59;;;-1.16;100.00
57248;BME280;55809;46.618;10.764;2024-01-16T08:12:38;92243.09;;;-1.14;100.00
57248;BME280;55809;46.618;10.764;2024-01-16T08:15:06;92238.63;;;-1.26;100.00
57248;BME280;55809;46.618;10.764;2024-01-16T08:17:34;92253.34;;;-1.28;100.00
57248;BME280;55809;46.618;10.764;2024-01-16T08:20:01;92245.81;;;-1.26;100.00
57248;BME280;55809;46.618;10.764;2024-01-16T08:22:28;92252.75;;;-1.22;100.00
57248;BME280;55809;46.618;10.764;2024-01-16T08:24:57;92251.94;;;-1.22;100.00
57248;BME280;55809;46.618;10.764;2024-01-16T08:27:24;92265.09;;;-1.26;100.00
57248;BME280;55809;46.618;10.764;2024-01-16T08:29:51;92267.06;;;-1.23;100.00
57248;BME280;55809;46.618;10.764;2024-01-16T08:32:18;92269.38;;;-1.21;100.00
57248;BME280;55809;46.618;10.764;2024-01-16T08:34:44;92260.56;;;-1.25;100.00
57248;BME280;55809;46.618;10.764;2024-01-16T08:37:11;92265.38;;;-1.31;100.00
57248;BME280;55809;46.618;10.764;2024-01-16T08:39:38;92248.03;;;-1.44;100.00
57248;BME280;55809;46.618;10.764;2024-01-16T08:42:07;92256.41;;;-1.26;100.00
57248;BME280;55809;46.618;10.764;2024-01-16T08:44:37;92271.16;;;-1.25;100.00
57248;BME280;55809;46.618;10.764;2024-01-16T08:47:04;92264.34;;;-1.26;100.00
57248;BME280;55809;46.618;10.764;2024-01-16T08:49:31;92277.56;;;-1.26;100.00
57248;BME280;55809;46.618;10.764;2024-01-16T08:51:58;92214.41;;;-1.72;100.00
57248;BME280;55809;46.618;10.764;2024-01-16T08:54:25;92273.47;;;-1.24;100.00
57248;BME280;55809;46.618;10.764;2024-01-16T08:56:52;92196.31;;;-1.85;100.00
57248;BME280;55809;46.618;10.764;2024-01-16T08:59:21;92280.22;;;-1.26;100.00
57248;BME280;55809;46.618;10.764;2024-01-16T09:01:48;92278.34;;;-1.26;100.00
57248;BME280;55809;46.618;10.764;2024-01-16T09:04:15;92274.50;;;-1.28;100.00
57248;BME280;55809;46.618;10.764;2024-01-16T09:06:41;92272.19;;;-1.30;100.00
57248;BME280;55809;46.618;10.764;2024-01-16T09:09:08;92270.97;;;-1.32;100.00
57248;BME280;55809;46.618;10.764;2024-01-16T09:11:35;92268.44;;;-1.29;100.00
57248;BME280;55809;46.618;10.764;2024-01-16T09:14:02;92266.56;;;-1.28;100.00
57248;BME280;55809;46.618;10.764;2024-01-16T09:16:31;92270.84;;;-1.24;100.00
57248;BME280;55809;46.618;10.764;2024-01-16T09:18:57;92269.53;;;-1.30;100.00
57248;BME280;55809;46.618;10.764;2024-01-16T09:21:24;92264.16;;;-1.33;100.00
57248;BME280;55809;46.618;10.764;2024-01-16T09:23:51;92269.00;;;-1.35;100.00
57248;BME280;55809;46.618;10.764;2024-01-16T09:26:18;92262.69;;;-1.47;100.00
57248;BME280;55809;46.618;10.764;2024-01-16T09:28:46;92270.03;;;-1.40;100.00
57248;BME280;55809;46.618;10.764;2024-01-16T09:31:14;92271.94;;;-1.40;100.00
57248;BME280;55809;46.618;10.764;2024-01-16T09:33:43;92271.16;;;-1.41;100.00
57248;BME280;55809;46.618;10.764;2024-01-16T09:36:10;92271.25;;;-1.37;100.00
57248;BME280;55809;46.618;10.764;2024-01-16T09:38:37;92276.09;;;-1.39;100.00
57248;BME280;55809;46.618;10.764;2024-01-16T09:41:04;92275.88;;;-1.34;100.00
57248;BME280;55809;46.618;10.764;2024-01-16T09:43:31;92275.19;;;-1.31;100.00
57248;BME280;55809;46.618;10.764;2024-01-16T09:46:00;92271.50;;;-1.27;100.00
57248;BME280;55809;46.618;10.764;2024-01-16T09:48:28;92278.63;;;-1.15;100.00
57248;BME280;55809;46.618;10.764;2024-01-16T09:50:56;92272.22;;;-0.82;100.00
57248;BME280;55809;46.618;10.764;2024-01-16T09:53:23;92274.13;;;-0.48;100.00
57248;BME280;55809;46.618;10.764;2024-01-16T09:55:54;92274.75;;;-0.19;100.00
57248;BME280;55809;46.618;10.764;2024-01-16T09:58:21;92276.81;;;0.07;100.00
57248;BME280;55809;46.618;10.764;2024-01-16T10:00:49;92265.00;;;0.43;100.00
57248;BME280;55809;46.618;10.764;2024-01-16T10:03:17;92268.56;;;0.74;100.00
57248;BME280;55809;46.618;10.764;2024-01-16T10:05:46;92255.69;;;0.96;100.00
57248;BME280;55809;46.618;10.764;2024-01-16T10:08:15;92264.84;;;1.25;100.00
57248;BME280;55809;46.618;10.764;2024-01-16T10:10:46;92257.50;;;1.41;100.00
57248;BME280;55809;46.618;10.764;2024-01-16T10:13:14;92266.81;;;1.54;100.00
57248;BME280;55809;46.618;10.764;2024-01-16T10:15:42;92263.31;;;1.73;100.00
57248;BME280;55809;46.618;10.764;2024-01-16T10:18:21;92263.59;;;1.95;100.00
57248;BME280;55809;46.618;10.764;2024-01-16T10:20:49;92259.25;;;2.13;100.00
57248;BME280;55809;46.618;10.764;2024-01-16T10:23:24;92260.97;;;2.28;100.00
57248;BME280;55809;46.618;10.764;2024-01-16T10:26:06;92266.75;;;2.34;100.00
57248;BME280;55809;46.618;10.764;2024-01-16T10:28:33;92208.25;;;2.07;100.00
57248;BME280;55809;46.618;10.764;2024-01-16T10:31:04;92259.00;;;2.55;100.00
57248;BME280;55809;46.618;10.764;2024-01-16T10:33:31;92254.19;;;2.68;100.00
57248;BME280;55809;46.618;10.764;2024-01-16T10:36:09;92256.25;;;2.86;100.00
57248;BME280;55809;46.618;10.764;2024-01-16T10:38:38;92249.09;;;2.90;100.00
57248;BME280;55809;46.618;10.764;2024-01-16T10:41:09;92247.31;;;3.04;100.00
57248;BME280;55809;46.618;10.764;2024-01-16T10:43:37;92258.47;;;3.17;100.00
57248;BME280;55809;46.618;10.764;2024-01-16T10:46:11;92252.00;;;3.22;100.00
57248;BME280;55809;46.618;10.764;2024-01-16T10:48:39;92255.50;;;3.26;100.00
57248;BME280;55809;46.618;10.764;2024-01-16T10:51:07;92259.31;;;3.28;100.00
57248;BME280;55809;46.618;10.764;2024-01-16T10:53:34;92245.22;;;3.28;100.00
57248;BME280;55809;46.618;10.764;2024-01-16T10:56:05;92256.78;;;3.43;100.00
57248;BME280;55809;46.618;10.764;2024-01-16T10:58:39;92252.56;;;3.42;100.00
57248;BME280;55809;46.618;10.764;2024-01-16T11:01:10;92258.34;;;3.51;100.00
57248;BME280;55809;46.618;10.764;2024-01-16T11:03:38;92256.81;;;3.50;100.00
57248;BME280;55809;46.618;10.764;2024-01-16T11:06:07;92259.06;;;3.44;100.00
57248;BME280;55809;46.618;10.764;2024-01-16T11:08:36;92253.00;;;3.51;100.00
57248;BME280;55809;46.618;10.764;2024-01-16T11:11:05;92249.63;;;3.58;100.00
57248;BME280;55809;46.618;10.764;2024-01-16T11:13:34;92187.91;;;3.04;100.00
57248;BME280;55809;46.618;10.764;2024-01-16T11:16:02;92244.22;;;3.47;100.00
57248;BME280;55809;46.618;10.764;2024-01-16T11:18:31;92249.56;;;3.47;100.00
57248;BME280;55809;46.618;10.764;2024-01-16T11:20:58;92251.88;;;3.52;100.00
57248;BME280;55809;46.618;10.764;2024-01-16T11:23:26;92244.91;;;3.37;100.00
57248;BME280;55809;46.618;10.764;2024-01-16T11:25:53;92237.56;;;3.23;100.00
57248;BME280;55809;46.618;10.764;2024-01-16T11:28:28;92233.34;;;3.22;100.00
57248;BME280;55809;46.618;10.764;2024-01-16T11:30:56;92226.09;;;3.19;100.00
57248;BME280;55809;46.618;10.764;2024-01-16T11:33:44;92233.56;;;3.02;100.00
57248;BME280;55809;46.618;10.764;2024-01-16T11:36:49;92233.63;;;2.69;100.00
57248;BME280;55809;46.618;10.764;2024-01-16T11:39:18;92236.63;;;2.60;100.00
57248;BME280;55809;46.618;10.764;2024-01-16T11:41:52;92160.22;;;1.97;100.00
57248;BME280;55809;46.618;10.764;2024-01-16T11:44:49;92228.63;;;2.26;100.00
57248;BME280;55809;46.618;10.764;2024-01-16T11:47:17;92227.19;;;2.02;100.00
57248;BME280;55809;46.618;10.764;2024-01-16T11:49:44;92216.81;;;1.94;100.00
57248;BME280;55809;46.618;10.764;2024-01-16T11:52:11;92213.94;;;1.76;100.00
57248;BME280;55809;46.618;10.764;2024-01-16T11:54:39;92218.16;;;1.80;100.00
57248;BME280;55809;46.618;10.764;2024-01-16T11:57:26;92208.78;;;1.90;100.00
57248;BME280;55809;46.618;10.764;2024-01-16T12:00:05;92204.81;;;2.07;100.00
57248;BME280;55809;46.618;10.764;2024-01-16T12:02:51;92210.75;;;2.27;100.00
57248;BME280;55809;46.618;10.764;2024-01-16T12:05:19;92197.91;;;2.36;100.00
57248;BME280;55809;46.618;10.764;2024-01-16T12:07:47;92193.44;;;2.44;100.00
57248;BME280;55809;46.618;10.764;2024-01-16T12:10:16;92191.94;;;2.46;100.00
57248;BME280;55809;46.618;10.764;2024-01-16T12:12:43;92188.81;;;2.37;100.00
57248;BME280;55809;46.618;10.764;2024-01-16T12:15:16;92173.84;;;1.92;100.00
57248;BME280;55809;46.618;10.764;2024-01-16T12:17:55;92187.09;;;1.58;100.00
57248;BME280;55809;46.618;10.764;2024-01-16T12:20:23;92185.06;;;1.21;100.00
57248;BME280;55809;46.618;10.764;2024-01-16T12:22:55;92185.03;;;0.94;100.00
57248;BME280;55809;46.618;10.764;2024-01-16T12:25:23;92181.34;;;0.76;100.00
57248;BME280;55809;46.618;10.764;2024-01-16T12:27:57;92203.59;;;0.68;100.00
57248;BME280;55809;46.618;10.764;2024-01-16T12:30:26;92196.16;;;0.54;100.00
57248;BME280;55809;46.618;10.764;2024-01-16T12:33:03;92194.47;;;0.46;100.00
57248;BME280;55809;46.618;10.764;2024-01-16T12:35:33;92191.06;;;0.45;100.00
57248;BME280;55809;46.618;10.764;2024-01-16T12:38:01;92193.25;;;0.40;100.00
57248;BME280;55809;46.618;10.764;2024-01-16T12:40:28;92195.50;;;0.38;100.00
57248;BME280;55809;46.618;10.764;2024-01-16T12:42:55;92190.53;;;0.36;100.00
57248;BME280;55809;46.618;10.764;2024-01-16T12:45:22;92162.28;;;0.25;100.00
57248;BME280;55809;46.618;10.764;2024-01-16T12:47:53;92181.22;;;0.46;100.00
57248;BME280;55809;46.618;10.764;2024-01-16T12:50:24;92183.16;;;0.72;100.00